Time;durP1;ratioP1;P1;durP2;ratioP2;P2;SDS_P1;SDS_P2;PMS_P1;PMS_P2;Temp;Humidity;BMP_temperature;BMP_pressure;BME280_temperature;BME280_humidity;BME280_pressure;Samples;Min_cycle;Max_cycle;Signal;HPM_P1;HPM_P2
2023/05/15 00:01:37;;;;;;;18.33;17.23;;;12.60;99.90;;;;;;4885485;29;20791;-83
2023/05/15 00:04:05;;;;;;;18.23;17.13;;;12.60;11.30;;;;;;4888481;29;21252;-81
2023/05/15 00:06:33;;;;;;;17.70;16.90;;;12.50;99.90;;;;;;4878319;29;20853;-82
2023/05/15 00:09:02;;;;;;;18.20;17.33;;;12.40;99.90;;;;;;4882947;29;20467;-80
2023/05/15 00:11:31;;;;;;;18.13;16.97;;;12.40;1.00;;;;;;4885596;29;20831;-81
2023/05/15 00:13:59;;;;;;;20.50;19.40;;;12.40;1.00;;;;;;4889108;29;20600;-83
2023/05/15 00:16:28;;;;;;;19.20;18.20;;;12.50;1.00;;;;;;4885282;29;20972;-81
2023/05/15 00:18:57;;;;;;;19.07;18.17;;;12.50;1.00;;;;;;4885921;29;20479;-82
2023/05/15 00:21:25;;;;;;;18.20;17.30;;;12.50;1.00;;;;;;4882557;29;20672;-80
2023/05/15 00:23:53;;;;;;;18.43;17.53;;;12.40;1.00;;;;;;4887605;29;21395;-82
2023/05/15 00:26:24;;;;;;;18.80;17.70;;;12.40;1.00;;;;;;4885604;29;20573;-80
2023/05/15 00:28:52;;;;;;;17.00;16.10;;;12.30;1.00;;;;;;4889264;29;20466;-80
2023/05/15 00:31:20;;;;;;;16.90;16.10;;;12.30;99.90;;;;;;4888216;29;20824;-83
2023/05/15 00:33:50;;;;;;;17.27;16.47;;;12.30;1.00;;;;;;4890573;29;20450;-79
2023/05/15 00:36:20;;;;;;;17.23;16.43;;;12.40;1.00;;;;;;4886365;29;20504;-83
2023/05/15 00:38:48;;;;;;;16.67;15.97;;;12.40;1.00;;;;;;4883308;29;20469;-78
2023/05/15 00:41:18;;;;;;;16.60;15.80;;;12.40;99.90;;;;;;4882804;29;20491;-80
2023/05/15 00:43:48;;;;;;;16.83;16.03;;;12.40;99.90;;;;;;4887302;29;20456;-82
2023/05/15 00:46:17;;;;;;;17.07;16.27;;;12.50;94.50;;;;;;4893995;29;20610;-82
2023/05/15 00:48:46;;;;;;;16.50;15.90;;;12.50;99.90;;;;;;4890155;29;20520;-81
2023/05/15 00:51:16;;;;;;;17.23;16.43;;;12.40;99.90;;;;;;4890428;29;21844;-82
2023/05/15 00:53:44;;;;;;;16.30;15.70;;;12.50;1.00;;;;;;4889197;29;20469;-82
2023/05/15 00:56:13;;;;;;;17.00;16.30;;;12.50;1.00;;;;;;4906037;29;20482;-83
2023/05/15 00:58:42;;;;;;;16.60;15.80;;;12.50;99.90;;;;;;4889839;29;20493;-80
2023/05/15 01:01:10;;;;;;;18.10;17.27;;;12.50;99.90;;;;;;4887595;29;20894;-81
2023/05/15 01:06:50;;;;;;;17.10;16.30;;;12.40;1.00;;;;;;4892211;29;20496;-84
2023/05/15 01:09:25;;;;;;;16.97;15.90;;;12.40;1.00;;;;;;4891390;29;20493;-81
2023/05/15 01:12:02;;;;;;;16.43;15.73;;;12.40;1.00;;;;;;4888289;29;20470;-83
2023/05/15 01:14:30;;;;;;;18.10;17.10;;;12.40;1.00;;;;;;4889783;29;20484;-81
2023/05/15 01:17:02;;;;;;;17.10;16.30;;;12.40;1.00;;;;;;4889102;29;20549;-80
2023/05/15 01:19:30;;;;;;;16.80;16.00;;;12.20;1.00;;;;;;4889541;29;20457;-81
2023/05/15 01:22:33;;;;;;;17.27;16.30;;;12.20;1.00;;;;;;4890128;29;20462;-79
2023/05/15 01:25:36;;;;;;;16.20;15.50;;;12.30;99.90;;;;;;4900741;29;20476;-80
2023/05/15 01:28:12;;;;;;;16.90;16.10;;;12.30;39.10;;;;;;4889523;29;20481;-81
2023/05/15 01:30:50;;;;;;;16.90;16.20;;;12.40;1.00;;;;;;4883152;29;20504;-80
2023/05/15 01:33:28;;;;;;;16.50;15.90;;;12.40;11.20;;;;;;4890309;29;20468;-80
2023/05/15 01:36:04;;;;;;;16.53;15.83;;;12.40;1.00;;;;;;4894826;29;20573;-80
2023/05/15 01:38:38;;;;;;;16.23;15.53;;;12.40;1.00;;;;;;4893622;29;20452;-81
2023/05/15 01:41:10;;;;;;;16.27;15.50;;;12.40;4.30;;;;;;4895287;29;20886;-84
2023/05/15 01:44:30;;;;;;;16.07;15.37;;;12.40;20.80;;;;;;4894158;29;20473;-81
2023/05/15 01:47:09;;;;;;;16.70;15.93;;;12.40;16.60;;;;;;4907838;29;20476;-80
2023/05/15 01:49:48;;;;;;;16.80;16.00;;;12.40;53.00;;;;;;4888292;29;20591;-80
2023/05/15 01:55:59;;;;;;;17.13;16.23;;;12.40;1.00;;;;;;4893699;29;20526;-81
2023/05/15 01:58:43;;;;;;;16.70;15.80;;;12.40;99.90;;;;;;4895852;29;20471;-81
2023/05/15 02:01:15;;;;;;;16.53;15.83;;;12.40;99.90;;;;;;4894690;29;20470;-83
2023/05/15 02:03:45;;;;;;;16.00;15.30;;;12.30;99.90;;;;;;4893522;29;20466;-82
2023/05/15 02:06:14;;;;;;;16.30;15.47;;;12.40;99.90;;;;;;4893810;29;20899;-82
2023/05/15 02:08:43;;;;;;;16.00;15.30;;;12.40;99.90;;;;;;4888806;29;20457;-82
2023/05/15 02:11:17;;;;;;;15.80;15.10;;;12.50;99.90;;;;;;4890682;29;20476;-83
2023/05/15 02:14:36;;;;;;;15.20;14.70;;;12.50;99.90;;;;;;4892360;29;20465;-81
2023/05/15 02:17:06;;;;;;;15.90;15.30;;;12.50;99.90;;;;;;4892987;29;20968;-82
2023/05/15 02:19:35;;;;;;;15.77;15.07;;;12.50;99.90;;;;;;4893792;29;20473;-80
2023/05/15 02:22:03;;;;;;;15.60;14.97;;;12.50;99.90;;;;;;4894593;29;20469;-84
2023/05/15 02:24:50;;;;;;;15.80;15.20;;;12.50;99.90;;;;;;4903444;23;20457;-82
2023/05/15 02:28:05;;;;;;;15.40;14.90;;;12.50;99.90;;;;;;4937800;29;20579;-81
2023/05/15 02:30:48;;;;;;;16.00;15.33;;;12.60;99.90;;;;;;4941947;29;20477;-82
2023/05/15 02:33:42;;;;;;;15.30;14.70;;;12.60;99.90;;;;;;4941957;28;20553;-83
2023/05/15 02:36:17;;;;;;;15.57;14.97;;;12.60;1.00;;;;;;4927111;29;20491;-81
2023/05/15 02:38:49;;;;;;;16.00;15.30;;;12.60;1.00;;;;;;4926315;29;20526;-83
2023/05/15 02:41:18;;;;;;;16.73;16.03;;;12.60;99.90;;;;;;4923148;29;20470;-81
2023/05/15 02:43:51;;;;;;;16.23;15.50;;;12.60;99.90;;;;;;4925610;29;20554;-80
2023/05/15 02:46:25;;;;;;;16.50;15.70;;;12.60;99.90;;;;;;4927568;29;20475;-81
2023/05/15 02:48:56;;;;;;;16.03;15.20;;;12.60;99.90;;;;;;4925816;29;20474;-82
2023/05/15 02:51:24;;;;;;;15.87;15.20;;;12.60;99.90;;;;;;4927212;29;20522;-83
2023/05/15 02:53:54;;;;;;;15.90;15.30;;;12.60;99.90;;;;;;4927824;29;20520;-82
2023/05/15 02:56:25;;;;;;;17.00;16.10;;;12.50;99.90;;;;;;4928523;29;20480;-81
2023/05/15 02:58:55;;;;;;;17.37;16.47;;;12.60;99.90;;;;;;4926152;29;20475;-81
2023/05/15 03:01:23;;;;;;;17.20;16.40;;;12.50;99.90;;;;;;4939561;28;20517;-82
2023/05/15 03:03:52;;;;;;;16.27;15.67;;;12.50;99.90;;;;;;4923252;29;20837;-81
2023/05/15 03:06:22;;;;;;;17.03;16.20;;;12.50;99.90;;;;;;4928770;29;20483;-81
2023/05/15 03:08:50;;;;;;;17.10;16.40;;;12.50;1.00;;;;;;4926258;29;20477;-82
2023/05/15 03:11:20;;;;;;;16.60;16.00;;;12.50;99.90;;;;;;4926784;29;20465;-83
2023/05/15 03:13:49;;;;;;;16.67;16.00;;;12.40;1.00;;;;;;4927996;29;20464;-81
2023/05/15 03:16:17;;;;;;;17.20;16.40;;;12.40;99.90;;;;;;4928516;29;20486;-83
2023/05/15 03:18:45;;;;;;;17.33;16.73;;;12.40;1.00;;;;;;4928636;29;20821;-83
2023/05/15 03:21:13;;;;;;;16.73;16.13;;;12.50;99.90;;;;;;4930794;29;20545;-83
2023/05/15 03:23:43;;;;;;;17.37;16.57;;;12.50;99.90;;;;;;4924184;29;20475;-81
2023/05/15 03:26:11;;;;;;;16.23;15.63;;;12.50;1.00;;;;;;4926805;29;20497;-82
2023/05/15 03:28:39;;;;;;;16.70;16.10;;;12.50;1.00;;;;;;4922150;29;20490;-81
2023/05/15 03:31:09;;;;;;;16.30;15.80;;;12.50;99.90;;;;;;4917340;29;20464;-81
2023/05/15 03:33:38;;;;;;;17.67;16.97;;;12.50;99.90;;;;;;4921282;29;20468;-80
2023/05/15 03:36:07;;;;;;;17.10;16.50;;;12.50;99.90;;;;;;4920308;29;20503;-82
2023/05/15 03:38:35;;;;;;;18.20;17.40;;;12.60;99.90;;;;;;4917524;29;20474;-80
2023/05/15 03:41:04;;;;;;;17.73;16.93;;;12.60;99.90;;;;;;4927300;28;20953;-81
2023/05/15 03:43:32;;;;;;;18.70;17.90;;;12.60;99.90;;;;;;4922145;29;20541;-82
2023/05/15 03:46:00;;;;;;;19.27;18.17;;;12.60;99.90;;;;;;4919236;29;20482;-82
2023/05/15 03:48:29;;;;;;;18.83;18.00;;;12.60;37.60;;;;;;4918382;29;20484;-82
2023/05/15 03:50:57;;;;;;;18.73;17.83;;;12.60;99.90;;;;;;4917205;29;20473;-80
2023/05/15 03:53:25;;;;;;;19.57;18.67;;;12.50;99.90;;;;;;4915141;29;20870;-80
2023/05/15 03:55:53;;;;;;;18.90;18.00;;;12.50;1.00;;;;;;4920795;28;20548;-84
2023/05/15 03:58:23;;;;;;;18.50;17.70;;;12.50;37.60;;;;;;4918207;29;20457;-82
2023/05/15 04:00:51;;;;;;;18.63;17.87;;;12.50;21.30;;;;;;4911138;29;20838;-79
2023/05/15 04:03:19;;;;;;;18.53;17.63;;;12.50;99.90;;;;;;4916286;29;20874;-83
2023/05/15 04:05:48;;;;;;;19.63;18.83;;;12.60;1.00;;;;;;4919761;29;20517;-82
2023/05/15 04:08:17;;;;;;;25.83;23.80;;;12.60;1.00;;;;;;4920170;29;20501;-83
2023/05/15 04:10:45;;;;;;;21.00;20.00;;;12.60;1.00;;;;;;4931792;28;20472;-80
2023/05/15 04:13:13;;;;;;;19.67;18.77;;;12.60;99.90;;;;;;4921269;29;20469;-83
2023/05/15 04:15:44;;;;;;;19.90;18.63;;;12.70;99.90;;;;;;4918845;29;20486;-83
2023/05/15 04:18:12;;;;;;;19.90;18.70;;;12.70;99.90;;;;;;4920172;29;20479;-84
2023/05/15 04:20:40;;;;;;;19.40;18.50;;;12.70;99.90;;;;;;4921565;29;20463;-83
2023/05/15 04:23:09;;;;;;;19.73;18.83;;;12.70;99.90;;;;;;4912822;29;20583;-82
2023/05/15 04:25:37;;;;;;;19.00;18.20;;;12.70;99.90;;;;;;4917200;29;20727;-81
2023/05/15 04:28:05;;;;;;;19.60;18.70;;;12.70;99.90;;;;;;4921942;29;20480;-83
2023/05/15 04:30:34;;;;;;;18.60;17.83;;;12.70;99.90;;;;;;4921625;29;20502;-84
2023/05/15 04:33:03;;;;;;;18.93;18.03;;;12.80;99.90;;;;;;4912558;29;20849;-79
2023/05/15 04:35:31;;;;;;;19.40;18.60;;;12.80;99.90;;;;;;4919001;29;20477;-81
2023/05/15 04:38:00;;;;;;;18.87;18.07;;;12.80;99.90;;;;;;4919672;29;20540;-79
2023/05/15 04:40:29;;;;;;;19.70;18.63;;;12.80;1.00;;;;;;4920542;29;21013;-81
2023/05/15 04:42:57;;;;;;;18.83;18.13;;;12.70;1.00;;;;;;4924876;29;20476;-85
2023/05/15 04:45:25;;;;;;;19.23;18.43;;;12.70;1.00;;;;;;4921871;29;20484;-83
2023/05/15 04:47:54;;;;;;;19.47;18.67;;;12.70;99.90;;;;;;4918242;29;20461;-82
2023/05/15 04:50:23;;;;;;;18.93;18.10;;;12.70;99.90;;;;;;4917658;29;20989;-80
2023/05/15 04:52:52;;;;;;;18.13;17.40;;;12.80;1.00;;;;;;4924093;29;20524;-81
2023/05/15 04:55:20;;;;;;;18.90;17.90;;;12.80;99.90;;;;;;4917641;29;20490;-81
2023/05/15 04:57:48;;;;;;;19.63;18.83;;;12.80;99.90;;;;;;4919418;29;21135;-76
2023/05/15 05:00:17;;;;;;;19.20;18.40;;;12.80;1.00;;;;;;4924128;29;20487;-81
2023/05/15 05:02:45;;;;;;;20.20;19.30;;;12.80;99.90;;;;;;4915589;29;20487;-82
2023/05/15 05:05:14;;;;;;;18.60;17.80;;;12.80;99.90;;;;;;4917270;29;20478;-80
2023/05/15 05:07:45;;;;;;;19.90;19.10;;;12.90;32.20;;;;;;4920590;29;20469;-82
2023/05/15 05:10:13;;;;;;;19.80;18.97;;;12.90;99.90;;;;;;4917409;29;20493;-81
2023/05/15 05:12:41;;;;;;;20.37;19.40;;;13.00;1.00;;;;;;4918174;29;20468;-81
2023/05/15 05:15:10;;;;;;;20.60;19.50;;;13.00;99.90;;;;;;4921178;29;21094;-80
2023/05/15 05:17:38;;;;;;;20.63;19.77;;;13.10;99.90;;;;;;4918044;29;20950;-84
2023/05/15 05:20:09;;;;;;;20.70;19.63;;;13.10;99.90;;;;;;4920058;29;20462;-81
2023/05/15 05:22:41;;;;;;;20.30;19.30;;;13.10;1.00;;;;;;4923074;29;20472;-83
2023/05/15 05:25:10;;;;;;;19.80;19.00;;;13.20;99.90;;;;;;4919059;29;20726;-84
2023/05/15 05:27:39;;;;;;;20.50;19.70;;;13.20;1.00;;;;;;4936141;28;20455;-81
2023/05/15 05:30:08;;;;;;;20.87;19.97;;;13.20;99.90;;;;;;4921974;29;20959;-80
2023/05/15 05:32:36;;;;;;;20.80;19.90;;;13.30;99.90;;;;;;4922301;29;20514;-82
2023/05/15 05:35:05;;;;;;;21.10;20.20;;;13.30;99.90;;;;;;4922977;29;20477;-83
2023/05/15 05:37:33;;;;;;;20.60;19.70;;;13.30;1.00;;;;;;4920233;29;20454;-82
2023/05/15 05:40:02;;;;;;;19.63;18.63;;;13.40;1.00;;;;;;4921118;29;20464;-82
2023/05/15 05:42:31;;;;;;;20.90;20.00;;;13.40;1.00;;;;;;4925230;29;20514;-81
2023/05/15 05:44:59;;;;;;;20.27;19.37;;;13.30;99.90;;;;;;4923717;29;20486;-80
2023/05/15 05:47:27;;;;;;;20.73;19.83;;;13.40;99.90;;;;;;4925000;29;20476;-80
2023/05/15 05:49:56;;;;;;;20.13;19.30;;;13.40;99.90;;;;;;4922242;29;20484;-82
2023/05/15 05:52:24;;;;;;;20.47;19.30;;;13.30;99.90;;;;;;4920948;29;20467;-82
2023/05/15 05:54:52;;;;;;;20.20;19.30;;;13.40;99.90;;;;;;4922866;29;20501;-83
2023/05/15 05:57:20;;;;;;;20.77;19.73;;;13.40;99.90;;;;;;4920980;29;20526;-84
2023/05/15 05:59:50;;;;;;;19.60;18.80;;;13.50;99.90;;;;;;4923935;29;20456;-79
2023/05/15 06:02:18;;;;;;;20.80;19.90;;;13.50;99.90;;;;;;4918861;29;20468;-80
2023/05/15 06:04:46;;;;;;;20.43;19.63;;;13.60;99.90;;;;;;4918400;29;20906;-81
2023/05/15 06:07:15;;;;;;;20.00;19.20;;;13.60;99.90;;;;;;4920965;29;20453;-80
2023/05/15 06:09:44;;;;;;;20.73;19.80;;;13.60;99.90;;;;;;4920363;29;20480;-82
2023/05/15 06:12:13;;;;;;;21.60;20.60;;;13.70;99.90;;;;;;4920764;29;20467;-82
2023/05/15 06:14:41;;;;;;;21.87;20.73;;;13.70;99.90;;;;;;4924428;29;20825;-82
2023/05/15 06:17:11;;;;;;;20.70;19.70;;;13.80;99.90;;;;;;4924312;29;21040;-81
2023/05/15 06:19:39;;;;;;;22.10;21.03;;;13.90;1.00;;;;;;4921871;29;20442;-81
2023/05/15 06:22:07;;;;;;;21.33;20.33;;;13.90;1.00;;;;;;4926338;29;20853;-82
2023/05/15 06:24:35;;;;;;;22.33;21.07;;;14.00;1.00;;;;;;4920852;29;20487;-82
2023/05/15 06:27:04;;;;;;;21.17;20.17;;;14.10;1.00;;;;;;4923987;29;20465;-82
2023/05/15 06:29:32;;;;;;;22.10;20.90;;;14.10;1.00;;;;;;4927397;29;21087;-84
2023/05/15 06:32:00;;;;;;;21.43;20.43;;;14.10;1.00;;;;;;4926254;29;20466;-83
2023/05/15 06:34:30;;;;;;;22.17;20.97;;;14.40;1.00;;;;;;4925212;29;20560;-83
2023/05/15 06:36:58;;;;;;;21.87;20.80;;;14.50;99.90;;;;;;4923274;29;20553;-84
2023/05/15 06:39:26;;;;;;;21.13;20.03;;;14.60;99.90;;;;;;4925398;29;21075;-82
2023/05/15 06:42:00;;;;;;;21.43;20.37;;;14.80;61.80;;;;;;4941061;28;20490;-83
2023/05/15 06:44:28;;;;;;;21.77;20.57;;;15.00;1.00;;;;;;4922832;29;20457;-82
2023/05/15 06:46:56;;;;;;;21.50;20.40;;;15.20;1.00;;;;;;4925732;29;20964;-82
2023/05/15 06:49:25;;;;;;;21.70;20.60;;;15.30;1.00;;;;;;4926776;29;20496;-83
2023/05/15 06:51:55;;;;;;;21.50;20.60;;;15.30;1.00;;;;;;4920304;29;20466;-82
2023/05/15 06:54:23;;;;;;;21.60;20.60;;;15.40;1.00;;;;;;4922614;29;20464;-82
2023/05/15 06:56:52;;;;;;;21.73;20.53;;;15.40;99.90;;;;;;4927508;29;20460;-81
2023/05/15 06:59:20;;;;;;;21.43;20.37;;;15.40;99.90;;;;;;4925264;29;20521;-82
2023/05/15 07:01:49;;;;;;;21.73;20.67;;;15.40;99.90;;;;;;4938405;29;20459;-81
2023/05/15 07:04:17;;;;;;;21.60;20.47;;;15.50;99.90;;;;;;4923967;29;20505;-83
2023/05/15 07:06:46;;;;;;;20.73;19.73;;;15.60;99.90;;;;;;4926143;29;20467;-82
2023/05/15 07:09:15;;;;;;;20.70;19.80;;;15.50;99.90;;;;;;4922619;29;20532;-81
2023/05/15 07:11:44;;;;;;;21.20;20.30;;;15.60;99.90;;;;;;4911922;29;20927;-81
2023/05/15 07:14:12;;;;;;;20.47;19.57;;;15.60;99.90;;;;;;4922931;29;20870;-81
2023/05/15 07:16:40;;;;;;;20.57;19.47;;;15.60;1.00;;;;;;4927495;29;20455;-80
2023/05/15 07:19:09;;;;;;;20.20;19.30;;;15.70;99.90;;;;;;4924613;29;20452;-78
2023/05/15 07:21:39;;;;;;;20.80;19.87;;;15.70;99.90;;;;;;4922653;29;20855;-81
2023/05/15 07:24:08;;;;;;;19.93;19.03;;;15.70;99.90;;;;;;4924522;29;20500;-81
2023/05/15 07:26:38;;;;;;;20.77;19.87;;;15.70;99.90;;;;;;4921800;29;20911;-82
2023/05/15 07:29:24;;;;;;;19.73;18.83;;;15.80;99.90;;;;;;4921274;29;20467;-79
2023/05/15 07:31:52;;;;;;;20.13;19.13;;;15.80;99.90;;;;;;4922187;29;20457;-79
2023/05/15 07:34:21;;;;;;;20.87;19.90;;;15.80;99.90;;;;;;4925527;29;20468;-79
2023/05/15 07:36:49;;;;;;;19.47;18.67;;;15.90;99.90;;;;;;4923209;29;20457;-80
2023/05/15 07:39:17;;;;;;;19.57;18.77;;;15.90;99.90;;;;;;4923801;29;20456;-79
2023/05/15 07:41:46;;;;;;;18.80;17.80;;;16.00;99.90;;;;;;4922868;29;20524;-79
2023/05/15 07:44:15;;;;;;;18.70;18.00;;;16.00;99.90;;;;;;4927174;29;20478;-80
2023/05/15 07:46:44;;;;;;;18.90;18.20;;;16.10;99.90;;;;;;4923959;29;20459;-80
2023/05/15 07:49:12;;;;;;;18.50;17.80;;;16.10;99.90;;;;;;4924147;29;20461;-82
2023/05/15 07:51:41;;;;;;;19.33;18.40;;;16.20;99.90;;;;;;4924218;29;21100;-80
2023/05/15 07:54:10;;;;;;;18.97;18.07;;;16.20;58.10;;;;;;4922600;29;20514;-82
2023/05/15 07:56:38;;;;;;;19.27;18.48;;;16.20;1.00;;;;;;4924856;29;20489;-84
2023/05/15 07:59:08;;;;;;;18.47;17.77;;;16.20;1.00;;;;;;4925104;29;20208;-83
2023/05/15 08:01:37;;;;;;;19.83;18.83;;;16.30;1.00;;;;;;4923418;29;20482;-83
2023/05/15 08:04:08;;;;;;;19.10;18.20;;;16.30;1.00;;;;;;4920630;29;20540;-85
2023/05/15 08:06:38;;;;;;;19.03;18.33;;;16.40;1.00;;;;;;4925082;29;20487;-83
2023/05/15 08:09:06;;;;;;;19.60;18.90;;;16.40;1.00;;;;;;4921662;29;20476;-84
2023/05/15 08:11:35;;;;;;;19.40;18.70;;;16.40;1.00;;;;;;4923279;29;20818;-82
2023/05/15 08:14:03;;;;;;;19.10;18.30;;;16.40;1.00;;;;;;4922790;29;20974;-82
2023/05/15 08:16:33;;;;;;;19.50;18.70;;;16.40;1.00;;;;;;4920898;29;20504;-84
2023/05/15 08:19:03;;;;;;;20.03;19.23;;;16.40;1.00;;;;;;4920086;29;20563;-82
2023/05/15 08:21:32;;;;;;;19.90;19.00;;;16.40;1.00;;;;;;4918901;29;20495;-82
2023/05/15 08:24:01;;;;;;;18.33;17.70;;;16.40;1.00;;;;;;4922696;29;20572;-82
2023/05/15 08:26:29;;;;;;;18.57;17.97;;;16.50;1.00;;;;;;4919210;29;20495;-84
2023/05/15 08:28:57;;;;;;;17.87;17.37;;;16.50;1.00;;;;;;4919344;29;20457;-86
2023/05/15 08:31:25;;;;;;;18.13;17.50;;;16.60;1.00;;;;;;4924527;29;20848;-84
2023/05/15 08:33:55;;;;;;;18.20;17.50;;;16.70;1.00;;;;;;4921609;29;21002;-81
2023/05/15 08:36:24;;;;;;;18.57;17.93;;;16.70;1.00;;;;;;4924064;29;20507;-84
2023/05/15 08:38:52;;;;;;;19.10;18.40;;;16.70;1.00;;;;;;4924641;29;20461;-83
2023/05/15 08:41:30;;;;;;;18.50;17.80;;;16.70;1.00;;;;;;4920399;29;20943;-83
2023/05/15 08:44:09;;;;;;;18.50;17.83;;;16.80;1.00;;;;;;4923837;29;20551;-83
2023/05/15 08:46:38;;;;;;;18.90;18.20;;;16.70;1.00;;;;;;4924554;29;20481;-81
2023/05/15 08:49:18;;;;;;;19.07;18.37;;;16.80;1.00;;;;;;4921882;29;20481;-83
2023/05/15 08:51:47;;;;;;;19.10;18.30;;;16.80;1.00;;;;;;4924014;29;20488;-83
2023/05/15 08:54:15;;;;;;;19.20;18.40;;;16.90;1.00;;;;;;4923088;29;21023;-81
2023/05/15 08:56:44;;;;;;;19.07;18.33;;;16.90;1.00;;;;;;4920224;29;20464;-82
2023/05/15 08:59:12;;;;;;;19.80;19.00;;;16.80;99.90;;;;;;4923188;29;21090;-83
2023/05/15 09:01:40;;;;;;;19.17;18.47;;;16.80;99.90;;;;;;4919586;29;20455;-83
2023/05/15 09:04:11;;;;;;;19.43;18.73;;;16.80;99.90;;;;;;4921252;29;20469;-83
2023/05/15 09:06:41;;;;;;;19.27;18.57;;;16.90;99.90;;;;;;4923239;29;20461;-82
2023/05/15 09:09:12;;;;;;;19.70;18.90;;;17.00;99.90;;;;;;4924722;29;20491;-83
2023/05/15 09:11:44;;;;;;;19.80;19.00;;;17.00;99.90;;;;;;4916362;29;21024;-82
2023/05/15 09:14:12;;;;;;;19.00;18.30;;;17.10;99.90;;;;;;4918150;29;20506;-82
2023/05/15 09:16:40;;;;;;;19.07;18.33;;;17.10;99.90;;;;;;4921623;29;21069;-83
2023/05/15 09:19:11;;;;;;;19.27;18.60;;;17.20;99.90;;;;;;4920107;29;20459;-83
2023/05/15 09:21:40;;;;;;;19.23;18.53;;;17.30;99.90;;;;;;4919001;29;20459;-82
2023/05/15 09:24:20;;;;;;;18.73;18.13;;;17.30;99.90;;;;;;4922859;29;20471;-83
2023/05/15 09:27:01;;;;;;;18.90;18.30;;;17.30;99.90;;;;;;4921135;29;20469;-82
2023/05/15 09:29:30;;;;;;;18.93;18.23;;;17.40;99.90;;;;;;4917383;29;20461;-84
2023/05/15 09:32:03;;;;;;;19.90;18.93;;;17.30;99.90;;;;;;4922928;29;20580;-83
2023/05/15 09:34:34;;;;;;;21.77;20.40;;;17.20;99.90;;;;;;4924984;29;20460;-84
2023/05/15 09:37:04;;;;;;;21.27;20.03;;;17.00;1.00;;;;;;4920944;29;20885;-81
2023/05/15 09:39:32;;;;;;;21.30;20.27;;;16.70;1.00;;;;;;4925819;29;20835;-82
2023/05/15 09:42:08;;;;;;;21.10;20.03;;;16.60;1.00;;;;;;4921398;29;20517;-82
2023/05/15 09:44:41;;;;;;;21.23;20.23;;;16.60;64.50;;;;;;4921977;29;20480;-83
2023/05/15 09:47:10;;;;;;;21.70;20.50;;;16.50;69.70;;;;;;4922142;29;20471;-82
2023/05/15 09:49:43;;;;;;;21.83;20.93;;;16.50;99.90;;;;;;4921189;29;20488;-82
2023/05/15 09:52:11;;;;;;;21.60;20.50;;;16.50;1.00;;;;;;4920356;29;20495;-83
2023/05/15 09:54:40;;;;;;;21.20;20.20;;;16.50;1.00;;;;;;4924430;29;20471;-83
2023/05/15 09:57:10;;;;;;;21.07;20.17;;;16.50;99.90;;;;;;4927830;29;20533;-82
2023/05/15 09:59:44;;;;;;;21.63;20.63;;;16.60;1.00;;;;;;4927453;29;20458;-82
2023/05/15 10:02:15;;;;;;;21.37;20.27;;;16.70;1.00;;;;;;4927312;29;21034;-85
2023/05/15 10:04:45;;;;;;;20.60;19.80;;;16.90;99.90;;;;;;4922378;29;20501;-83
2023/05/15 10:07:26;;;;;;;20.40;19.50;;;17.00;1.00;;;;;;4925504;29;20445;-81
2023/05/15 10:09:55;;;;;;;20.03;19.23;;;17.10;99.90;;;;;;4925554;29;20521;-83
2023/05/15 10:12:25;;;;;;;20.90;19.90;;;17.20;99.90;;;;;;4924251;29;20473;-83
2023/05/15 10:14:57;;;;;;;20.23;19.43;;;17.20;99.90;;;;;;4941223;29;20854;-83
2023/05/15 10:17:26;;;;;;;20.30;19.40;;;17.20;99.90;;;;;;4924767;29;20469;-83
2023/05/15 10:19:59;;;;;;;19.97;19.20;;;17.20;99.90;;;;;;4925710;29;20444;-82
2023/05/15 10:22:30;;;;;;;20.50;19.70;;;17.10;99.90;;;;;;4926809;29;20459;-84
2023/05/15 10:25:03;;;;;;;20.13;19.23;;;17.10;99.90;;;;;;4921388;29;20483;-83
2023/05/15 10:27:34;;;;;;;20.30;19.50;;;17.10;99.90;;;;;;4924126;29;20973;-83
2023/05/15 10:30:05;;;;;;;20.80;19.90;;;17.10;1.00;;;;;;4924321;29;20464;-82
2023/05/15 10:32:35;;;;;;;20.57;19.67;;;17.10;1.00;;;;;;4926907;29;20484;-83
2023/05/15 10:35:05;;;;;;;20.10;19.30;;;17.20;99.90;;;;;;4926528;29;20567;-83
2023/05/15 10:37:35;;;;;;;20.83;19.83;;;17.30;99.90;;;;;;4922494;29;20828;-83
2023/05/15 10:40:06;;;;;;;19.67;18.87;;;17.50;99.90;;;;;;4922974;29;20862;-80
2023/05/15 10:42:35;;;;;;;19.00;18.20;;;17.70;99.90;;;;;;4925446;29;20499;-83
2023/05/15 10:45:05;;;;;;;18.50;17.80;;;17.80;4.30;;;;;;4926142;29;20480;-81
2023/05/15 10:47:34;;;;;;;18.43;17.73;;;17.80;1.00;;;;;;4924763;29;20457;-83
2023/05/15 10:50:04;;;;;;;18.97;18.27;;;17.90;1.00;;;;;;4922605;29;20462;-81
2023/05/15 10:52:33;;;;;;;18.90;18.20;;;17.90;1.00;;;;;;4922984;29;20489;-81
2023/05/15 10:55:03;;;;;;;18.40;17.77;;;18.00;1.00;;;;;;4924217;29;20503;-80
2023/05/15 10:57:31;;;;;;;18.60;17.80;;;18.10;1.00;;;;;;4920962;29;20932;-83
2023/05/15 11:00:00;;;;;;;18.40;17.80;;;18.10;99.90;;;;;;4923499;29;20553;-83
2023/05/15 11:02:30;;;;;;;18.50;17.90;;;18.00;1.00;;;;;;4925360;29;21091;-78
2023/05/15 11:04:59;;;;;;;19.20;18.40;;;18.20;1.00;;;;;;4926173;29;20473;-80
2023/05/15 11:07:31;;;;;;;18.40;17.70;;;18.10;1.00;;;;;;4922929;29;20461;-83
2023/05/15 11:09:59;;;;;;;18.53;17.93;;;18.00;99.90;;;;;;4924941;29;20468;-81
2023/05/15 11:12:57;;;;;;;18.10;17.50;;;18.10;99.90;;;;;;4925706;29;20485;-82
2023/05/15 11:15:25;;;;;;;17.50;17.00;;;18.20;99.90;;;;;;4926890;29;21037;-83
2023/05/15 11:18:04;;;;;;;18.00;17.30;;;18.30;99.90;;;;;;4924485;29;20833;-83
2023/05/15 11:20:34;;;;;;;18.40;17.80;;;18.30;99.90;;;;;;4926493;29;20568;-81
2023/05/15 11:23:05;;;;;;;17.50;17.00;;;18.40;99.90;;;;;;4938586;28;20473;-84
2023/05/15 11:25:35;;;;;;;17.90;17.23;;;18.30;99.90;;;;;;4922753;29;20525;-81
2023/05/15 11:28:04;;;;;;;18.23;17.53;;;18.30;99.90;;;;;;4924704;29;20856;-81
2023/05/15 11:30:37;;;;;;;18.83;18.17;;;18.40;99.90;;;;;;4920245;29;20584;-83
2023/05/15 11:33:10;;;;;;;18.30;17.70;;;18.40;99.90;;;;;;4922849;29;20484;-80
2023/05/15 11:35:41;;;;;;;18.00;17.30;;;18.60;99.90;;;;;;4918551;29;20476;-79
2023/05/15 11:38:15;;;;;;;18.33;17.63;;;18.70;99.90;;;;;;4917703;29;20455;-82
2023/05/15 11:40:46;;;;;;;17.60;17.10;;;18.70;99.90;;;;;;4921088;29;20970;-80
2023/05/15 11:43:19;;;;;;;18.00;17.40;;;18.60;99.90;;;;;;4917692;29;20584;-82
2023/05/15 11:45:51;;;;;;;18.77;18.10;;;18.60;99.90;;;;;;4920248;29;21128;-80
2023/05/15 11:48:20;;;;;;;18.27;17.73;;;18.50;99.90;;;;;;4922413;29;20560;-80
2023/05/15 11:50:48;;;;;;;17.93;17.40;;;18.50;99.90;;;;;;4919792;29;20468;-79
2023/05/15 11:53:18;;;;;;;18.37;17.70;;;18.70;99.90;;;;;;4919403;29;20523;-81
2023/05/15 11:55:46;;;;;;;18.27;17.67;;;18.80;99.90;;;;;;4921567;29;20484;-82
2023/05/15 11:58:16;;;;;;;18.57;17.97;;;18.80;99.90;;;;;;4920742;29;20466;-81
2023/05/15 12:00:46;;;;;;;18.97;18.37;;;18.70;99.90;;;;;;4918235;29;20475;-82
2023/05/15 12:03:16;;;;;;;19.23;18.50;;;18.70;99.90;;;;;;4916566;29;20452;-82
2023/05/15 12:05:44;;;;;;;18.60;18.00;;;18.60;99.90;;;;;;4919619;29;20488;-78
2023/05/15 12:08:32;;;;;;;18.77;18.13;;;18.60;99.90;;;;;;4920958;29;21024;-78
2023/05/15 12:11:01;;;;;;;18.10;17.50;;;18.60;99.90;;;;;;4919193;29;20457;-81
2023/05/15 12:13:30;;;;;;;18.23;17.63;;;18.50;99.90;;;;;;4924554;29;20472;-78
2023/05/15 12:15:59;;;;;;;18.40;17.80;;;18.50;99.90;;;;;;4924063;29;20545;-84
2023/05/15 12:18:27;;;;;;;18.30;17.70;;;18.50;99.90;;;;;;4921384;29;20466;-78
2023/05/15 12:20:56;;;;;;;18.13;17.53;;;18.50;99.90;;;;;;4920129;29;20498;-79
2023/05/15 12:23:26;;;;;;;19.27;18.47;;;18.70;99.90;;;;;;4921738;29;20458;-84
2023/05/15 12:26:00;;;;;;;18.33;17.73;;;18.80;99.90;;;;;;4917951;29;20555;-83
2023/05/15 12:28:30;;;;;;;18.03;17.50;;;18.80;99.90;;;;;;4921189;29;20503;-80
2023/05/15 12:30:59;;;;;;;18.30;17.80;;;18.80;99.90;;;;;;4919544;29;20615;-81
2023/05/15 12:33:27;;;;;;;17.90;17.40;;;18.90;99.90;;;;;;4919449;29;20510;-84
2023/05/15 12:35:56;;;;;;;18.30;17.70;;;19.00;99.90;;;;;;4923180;29;20471;-81
2023/05/15 12:38:29;;;;;;;17.90;17.10;;;19.10;99.90;;;;;;4921006;29;20453;-82
2023/05/15 12:40:59;;;;;;;17.53;17.03;;;19.00;99.90;;;;;;4923533;29;20473;-83
2023/05/15 12:43:27;;;;;;;17.50;16.97;;;19.00;99.90;;;;;;4922518;29;20496;-82
2023/05/15 12:45:56;;;;;;;18.33;17.73;;;19.00;99.90;;;;;;4927033;29;20461;-82
2023/05/15 12:48:30;;;;;;;18.07;17.47;;;19.00;99.90;;;;;;4923428;29;20672;-82
2023/05/15 12:51:06;;;;;;;18.10;17.40;;;19.00;99.90;;;;;;4924036;29;20456;-80
2023/05/15 12:53:35;;;;;;;18.57;17.97;;;19.00;99.90;;;;;;4923189;29;20469;-79
2023/05/15 12:56:05;;;;;;;17.33;16.83;;;19.00;99.90;;;;;;4920472;29;21050;-82